createdAt,value
2017-01-24T00:00:49.061Z,0
2017-01-24T00:02:00.215Z,0
2017-01-24T00:03:09.840Z,0
2017-01-24T00:04:21.687Z,0
2017-01-24T00:05:32.871Z,0
2017-01-24T00:06:45.565Z,0
2017-01-24T00:07:56.091Z,0
2017-01-24T00:09:07.135Z,0
2017-01-24T00:10:18.452Z,0
2017-01-24T00:11:31.867Z,0
2017-01-24T00:12:43.520Z,0
2017-01-24T00:13:55.939Z,0
2017-01-24T00:15:08.299Z,0
2017-01-24T00:16:18.567Z,0
2017-01-24T00:17:31.904Z,0
2017-01-24T00:18:44.799Z,0
2017-01-24T00:19:56.404Z,0
2017-01-24T00:21:07.201Z,0
2017-01-24T00:22:18.879Z,0
2017-01-24T00:23:30.533Z,0
2017-01-24T00:24:43.406Z,0
2017-01-24T00:25:55.540Z,0
2017-01-24T00:27:05.185Z,0
2017-01-24T00:28:15.068Z,0
2017-01-24T00:29:28.054Z,0
2017-01-24T00:30:38.218Z,0
2017-01-24T00:31:48.822Z,0
2017-01-24T00:33:00.074Z,0
2017-01-24T00:34:09.666Z,0
2017-01-24T00:35:20.218Z,0
2017-01-24T00:36:30.453Z,0
2017-01-24T00:37:41.113Z,0
2017-01-24T00:38:52.168Z,0
2017-01-24T00:40:02.707Z,0
2017-01-24T00:41:14.733Z,0
2017-01-24T00:42:28.481Z,0
2017-01-24T00:43:39.906Z,0
2017-01-24T00:44:48.891Z,0
2017-01-24T00:45:58.879Z,0
2017-01-24T00:47:09.067Z,0
2017-01-24T00:48:18.559Z,0
2017-01-24T00:49:30.676Z,0
2017-01-24T00:50:41.228Z,0
2017-01-24T00:51:52.048Z,0
2017-01-24T00:53:02.546Z,0
2017-01-24T00:54:13.596Z,0
2017-01-24T00:55:24.885Z,0
2017-01-24T00:56:35.976Z,0
2017-01-24T00:57:47.455Z,0
2017-01-24T00:58:57.553Z,0
2017-01-24T01:00:08.707Z,0
2017-01-24T01:01:17.661Z,0
2017-01-24T01:02:26.692Z,0
2017-01-24T01:03:36.785Z,0
2017-01-24T01:04:45.858Z,0
2017-01-24T01:05:54.816Z,0
2017-01-24T01:07:03.768Z,0
2017-01-24T01:08:12.718Z,0
2017-01-24T01:09:21.675Z,0
2017-01-24T01:10:30.633Z,0
2017-01-24T01:11:39.586Z,0
2017-01-24T01:12:48.627Z,0
2017-01-24T01:13:57.577Z,0
2017-01-24T01:15:06.534Z,0
2017-01-24T01:16:15.485Z,0
2017-01-24T01:17:24.456Z,0
2017-01-24T01:18:33.400Z,0
2017-01-24T01:19:42.346Z,0
2017-01-24T01:20:51.302Z,0
2017-01-24T01:22:00.255Z,0
2017-01-24T01:23:09.209Z,0
2017-01-24T01:24:18.250Z,0
2017-01-24T01:25:27.644Z,0
2017-01-24T01:26:36.625Z,0
2017-01-24T01:27:45.586Z,0
2017-01-24T01:28:54.539Z,0
2017-01-24T01:30:03.582Z,0
2017-01-24T01:31:12.532Z,0
2017-01-24T01:32:21.480Z,0
2017-01-24T01:33:30.434Z,0
2017-01-24T01:34:39.384Z,0
2017-01-24T01:35:48.343Z,0
2017-01-24T01:36:57.290Z,0
2017-01-24T01:38:06.331Z,0
2017-01-24T01:39:15.291Z,0
2017-01-24T01:40:24.245Z,0
2017-01-24T01:41:33.195Z,0
2017-01-24T01:42:42.229Z,0
2017-01-24T01:43:51.184Z,0
2017-01-24T01:45:00.154Z,0
2017-01-24T01:46:09.116Z,0
2017-01-24T01:47:18.070Z,0
2017-01-24T01:48:27.018Z,0
2017-01-24T01:49:35.997Z,0
2017-01-24T01:50:44.946Z,0
2017-01-24T01:51:53.896Z,0
2017-01-24T01:53:02.844Z,0
2017-01-24T01:54:11.883Z,0
2017-01-24T01:55:20.843Z,0
2017-01-24T01:56:29.794Z,0
2017-01-24T01:57:38.744Z,0
2017-01-24T01:58:47.696Z,0
2017-01-24T01:59:56.650Z,0
2017-01-24T02:01:05.602Z,0
2017-01-24T02:02:14.553Z,0
2017-01-24T02:03:23.501Z,0
2017-01-24T02:04:32.542Z,0
2017-01-24T02:05:41.493Z,0
2017-01-24T02:06:50.452Z,0
2017-01-24T02:07:59.897Z,0
2017-01-24T02:09:08.853Z,0
2017-01-24T02:10:17.818Z,0
2017-01-24T02:11:26.771Z,0
2017-01-24T02:12:35.717Z,0
2017-01-24T02:13:44.677Z,0
2017-01-24T02:14:53.626Z,0
2017-01-24T02:16:02.609Z,0
2017-01-24T02:17:11.560Z,0
2017-01-24T02:18:20.513Z,0
2017-01-24T02:19:29.485Z,0
2017-01-24T02:20:38.441Z,0
2017-01-24T02:21:47.393Z,0
2017-01-24T02:22:56.347Z,0
2017-01-24T02:24:05.298Z,0
2017-01-24T02:25:14.243Z,0
2017-01-24T02:26:23.199Z,0
2017-01-24T02:27:32.176Z,0
2017-01-24T02:28:41.129Z,0
2017-01-24T02:29:50.171Z,0
2017-01-24T02:30:59.126Z,0
2017-01-24T02:32:08.083Z,0
2017-01-24T02:33:17.041Z,0
2017-01-24T02:34:25.997Z,0
2017-01-24T02:35:35.050Z,0
2017-01-24T02:36:44.001Z,0
2017-01-24T02:37:52.952Z,0
2017-01-24T02:39:01.904Z,0
2017-01-24T02:40:10.861Z,0
2017-01-24T02:41:19.811Z,0
2017-01-24T02:42:28.859Z,0
2017-01-24T02:43:37.910Z,0
2017-01-24T02:44:46.860Z,0
2017-01-24T02:45:55.808Z,0
2017-01-24T02:47:04.756Z,0
2017-01-24T02:48:13.715Z,0
2017-01-24T02:49:22.672Z,0
2017-01-24T02:50:31.624Z,0
2017-01-24T02:51:40.753Z,0
2017-01-24T02:52:49.703Z,0
2017-01-24T02:53:58.675Z,0
2017-01-24T02:55:07.627Z,0
2017-01-24T02:56:16.603Z,0
2017-01-24T02:57:25.564Z,0
2017-01-24T02:58:34.513Z,0
2017-01-24T02:59:43.470Z,0
2017-01-24T03:00:52.423Z,0
2017-01-24T03:02:01.375Z,0
2017-01-24T03:03:10.329Z,0
2017-01-24T03:04:19.287Z,0
2017-01-24T03:05:28.241Z,0
2017-01-24T03:06:37.193Z,0
2017-01-24T03:07:46.154Z,0
2017-01-24T03:08:55.104Z,0
2017-01-24T03:10:04.065Z,0
2017-01-24T03:11:13.017Z,0
2017-01-24T03:12:21.971Z,0
2017-01-24T03:13:30.930Z,0
2017-01-24T03:14:39.881Z,0
2017-01-24T03:15:48.830Z,0
2017-01-24T03:16:57.781Z,0
2017-01-24T03:18:06.735Z,0
2017-01-24T03:19:15.682Z,0
2017-01-24T03:20:24.634Z,0
2017-01-24T03:21:33.590Z,0
2017-01-24T03:22:42.546Z,0
2017-01-24T03:23:51.496Z,0
2017-01-24T03:25:00.447Z,0
2017-01-24T03:26:09.406Z,0
2017-01-24T03:27:18.361Z,0
2017-01-24T03:28:27.312Z,0
2017-01-24T03:29:36.261Z,0
2017-01-24T03:30:45.222Z,0
2017-01-24T03:31:54.174Z,0
2017-01-24T03:33:03.131Z,0
2017-01-24T03:34:12.091Z,0
2017-01-24T03:35:21.044Z,0
2017-01-24T03:36:29.996Z,0
2017-01-24T03:37:38.952Z,0
2017-01-24T03:38:47.901Z,0
2017-01-24T03:39:56.852Z,0
2017-01-24T03:41:05.804Z,0
2017-01-24T03:42:14.763Z,0
2017-01-24T03:43:23.719Z,0
2017-01-24T03:44:32.669Z,0
2017-01-24T03:45:41.621Z,0
2017-01-24T03:46:50.572Z,0
2017-01-24T03:47:59.521Z,0
2017-01-24T03:49:08.472Z,0
2017-01-24T03:50:17.428Z,0
2017-01-24T03:51:26.377Z,0
2017-01-24T03:52:35.325Z,0
2017-01-24T03:53:44.284Z,0
2017-01-24T03:54:53.243Z,0
2017-01-24T03:56:02.193Z,0
2017-01-24T03:57:11.142Z,0
2017-01-24T03:58:20.184Z,0
2017-01-24T03:59:29.133Z,0
2017-01-24T04:00:38.083Z,0
2017-01-24T04:01:47.044Z,0
2017-01-24T04:02:55.995Z,0
2017-01-24T04:04:04.954Z,0
2017-01-24T04:05:13.904Z,0
2017-01-24T04:06:22.876Z,0
2017-01-24T04:07:31.826Z,0
2017-01-24T04:08:40.773Z,0
2017-01-24T04:09:49.726Z,0
2017-01-24T04:10:58.679Z,0
2017-01-24T04:12:07.717Z,0
2017-01-24T04:13:16.671Z,0
2017-01-24T04:14:25.625Z,0
2017-01-24T04:15:34.666Z,0
2017-01-24T04:16:43.617Z,0
2017-01-24T04:17:52.571Z,0
2017-01-24T04:19:01.519Z,0
2017-01-24T04:20:10.472Z,0
2017-01-24T04:21:19.420Z,0
2017-01-24T04:22:28.465Z,0
2017-01-24T04:23:37.420Z,0
2017-01-24T04:24:46.372Z,0
2017-01-24T04:25:55.339Z,0
2017-01-24T04:27:04.293Z,0
2017-01-24T04:28:13.250Z,0
2017-01-24T04:29:22.204Z,0
2017-01-24T04:30:31.156Z,0
2017-01-24T04:31:40.203Z,0
2017-01-24T04:32:49.163Z,0
2017-01-24T04:33:58.136Z,0
2017-01-24T04:35:07.084Z,0
2017-01-24T04:36:16.123Z,0
2017-01-24T04:37:25.079Z,0
2017-01-24T04:38:34.035Z,0
2017-01-24T04:39:42.992Z,0
2017-01-24T04:40:51.942Z,0
2017-01-24T04:42:00.891Z,0
2017-01-24T04:43:09.842Z,0
2017-01-24T04:44:18.793Z,0
2017-01-24T04:45:27.747Z,0
2017-01-24T04:46:36.704Z,0
2017-01-24T04:47:45.743Z,0
2017-01-24T04:48:54.815Z,0
2017-01-24T04:50:03.779Z,0
2017-01-24T04:51:12.738Z,0
2017-01-24T04:52:21.689Z,0
2017-01-24T04:53:30.640Z,0
2017-01-24T04:54:39.588Z,0
2017-01-24T04:55:48.538Z,0
2017-01-24T04:56:57.493Z,0
2017-01-24T04:58:06.450Z,0
2017-01-24T04:59:15.398Z,0
2017-01-24T05:00:24.346Z,0
2017-01-24T05:01:33.303Z,0
2017-01-24T05:02:42.282Z,0
2017-01-24T05:03:51.230Z,0
2017-01-24T05:05:00.354Z,0
2017-01-24T05:06:09.304Z,0
2017-01-24T05:07:18.256Z,0
2017-01-24T05:08:27.295Z,0
2017-01-24T05:09:36.245Z,0
2017-01-24T05:10:45.200Z,0
2017-01-24T05:11:54.158Z,0
2017-01-24T05:13:03.159Z,0
2017-01-24T05:14:12.138Z,0
2017-01-24T05:15:21.087Z,0
2017-01-24T05:16:30.041Z,0
2017-01-24T05:17:38.990Z,0
2017-01-24T05:18:48.025Z,0
2017-01-24T05:19:56.973Z,0
2017-01-24T05:21:05.945Z,0
2017-01-24T05:22:14.894Z,0
2017-01-24T05:23:23.846Z,0
2017-01-24T05:24:32.802Z,0
2017-01-24T05:25:41.749Z,0
2017-01-24T05:26:50.704Z,0
2017-01-24T05:27:59.656Z,0
2017-01-24T05:29:08.610Z,0
2017-01-24T05:30:17.566Z,0
2017-01-24T05:31:26.514Z,0
2017-01-24T05:32:35.469Z,0
2017-01-24T05:33:44.419Z,0
2017-01-24T05:34:53.370Z,0
2017-01-24T05:36:02.324Z,0
2017-01-24T05:37:11.309Z,0
2017-01-24T05:38:20.267Z,0
2017-01-24T05:39:29.246Z,0
2017-01-24T05:40:38.202Z,0
2017-01-24T05:41:47.153Z,0
2017-01-24T05:42:56.121Z,0
2017-01-24T05:44:05.070Z,0
2017-01-24T05:45:14.022Z,0
2017-01-24T05:46:22.973Z,0
2017-01-24T05:47:31.922Z,0
2017-01-24T05:48:40.878Z,0
2017-01-24T05:49:49.918Z,0
2017-01-24T05:50:58.879Z,0
2017-01-24T05:52:07.833Z,0
2017-01-24T05:53:16.805Z,0
2017-01-24T05:54:25.753Z,0
2017-01-24T05:55:34.705Z,0
2017-01-24T05:56:43.659Z,0
2017-01-24T05:57:52.612Z,0
2017-01-24T05:59:01.566Z,0
2017-01-24T06:00:10.522Z,0
2017-01-24T06:01:19.472Z,0
2017-01-24T06:02:28.426Z,0
2017-01-24T06:03:37.379Z,0
2017-01-24T06:04:46.339Z,0
2017-01-24T06:05:55.392Z,0
2017-01-24T06:07:04.346Z,0
2017-01-24T06:08:13.297Z,0
2017-01-24T06:09:22.249Z,0
2017-01-24T06:10:31.283Z,0
2017-01-24T06:11:40.236Z,0
2017-01-24T06:12:49.271Z,0
2017-01-24T06:13:58.220Z,0
2017-01-24T06:15:07.192Z,0
2017-01-24T06:16:16.145Z,0
2017-01-24T06:17:25.182Z,0
2017-01-24T06:18:34.143Z,0
2017-01-24T06:19:43.096Z,0
2017-01-24T06:20:52.052Z,0
2017-01-24T06:22:01.087Z,0
2017-01-24T06:23:10.042Z,0
2017-01-24T06:24:19.014Z,0
2017-01-24T06:25:27.962Z,0
2017-01-24T06:26:37.326Z,0
2017-01-24T06:27:46.277Z,0
2017-01-24T06:28:55.233Z,0
2017-01-24T06:30:04.191Z,0
2017-01-24T06:31:13.147Z,0
2017-01-24T06:32:22.092Z,0
2017-01-24T06:33:31.048Z,0
2017-01-24T06:34:40.006Z,0
2017-01-24T06:35:48.966Z,0
2017-01-24T06:36:57.918Z,0
2017-01-24T06:38:06.870Z,0
2017-01-24T06:39:15.820Z,0
2017-01-24T06:40:24.771Z,0
2017-01-24T06:41:33.726Z,0
2017-01-24T06:42:42.680Z,0
2017-01-24T06:43:51.630Z,0
2017-01-24T06:45:00.583Z,0
2017-01-24T06:46:09.542Z,0
2017-01-24T06:47:18.582Z,0
2017-01-24T06:48:27.530Z,0
2017-01-24T06:49:36.478Z,0
2017-01-24T06:50:45.430Z,0
2017-01-24T06:51:54.386Z,0
2017-01-24T06:53:03.336Z,0
2017-01-24T06:54:12.285Z,0
2017-01-24T06:55:21.243Z,0
2017-01-24T06:56:30.199Z,0
2017-01-24T06:57:39.153Z,0
2017-01-24T06:58:48.109Z,0
2017-01-24T06:59:57.067Z,0
2017-01-24T07:01:06.013Z,0
2017-01-24T07:02:14.966Z,0
2017-01-24T07:03:23.923Z,0
2017-01-24T07:04:32.879Z,0
2017-01-24T07:05:41.832Z,0
2017-01-24T07:06:50.788Z,0
2017-01-24T07:07:59.739Z,0
2017-01-24T07:09:08.690Z,0
2017-01-24T07:10:17.645Z,0
2017-01-24T07:11:26.683Z,0
2017-01-24T07:12:36.123Z,0
2017-01-24T07:13:45.079Z,0
2017-01-24T07:14:54.117Z,0
2017-01-24T07:16:03.155Z,0
2017-01-24T07:17:12.108Z,0
2017-01-24T07:18:21.893Z,0
2017-01-24T07:19:32.080Z,0
2017-01-24T07:20:41.691Z,0
2017-01-24T07:21:51.317Z,0
2017-01-24T07:23:00.950Z,0
2017-01-24T07:24:10.509Z,0
2017-01-24T07:25:20.155Z,0
2017-01-24T07:26:29.582Z,0
2017-01-24T07:27:38.534Z,0
2017-01-24T07:28:47.489Z,0
2017-01-24T07:29:56.527Z,0
2017-01-24T07:31:09.043Z,0
2017-01-24T07:32:18.359Z,5
2017-01-24T07:33:27.584Z,5
2017-01-24T07:34:36.900Z,5
2017-01-24T07:35:47.499Z,5
2017-01-24T07:36:58.790Z,5
2017-01-24T07:38:09.103Z,5
2017-01-24T07:39:19.098Z,5
2017-01-24T07:40:28.999Z,5
2017-01-24T07:41:40.089Z,5
2017-01-24T07:42:50.153Z,10
2017-01-24T07:44:00.049Z,5
2017-01-24T07:45:10.703Z,5
2017-01-24T07:46:20.082Z,5
2017-01-24T07:47:29.038Z,10
2017-01-24T07:48:41.186Z,5
2017-01-24T07:49:53.802Z,5
2017-01-24T07:51:04.246Z,10
2017-01-24T07:52:14.284Z,10
2017-01-24T07:53:25.052Z,10
2017-01-24T07:54:35.003Z,5
2017-01-24T07:55:44.651Z,5
2017-01-24T07:56:54.335Z,10
2017-01-24T07:58:03.960Z,10
2017-01-24T07:59:14.355Z,10
2017-01-24T08:00:24.272Z,10
2017-01-24T08:01:33.579Z,10
2017-01-24T08:02:43.018Z,10
2017-01-24T08:03:53.251Z,10
2017-01-24T08:05:02.778Z,10
2017-01-24T08:06:12.974Z,10
2017-01-24T08:07:21.927Z,10
2017-01-24T08:08:30.880Z,10
2017-01-24T08:09:39.836Z,10
2017-01-24T08:10:48.921Z,10
2017-01-24T08:11:57.871Z,10
2017-01-24T08:13:06.834Z,15
2017-01-24T08:14:16.124Z,15
2017-01-24T08:15:25.353Z,15
2017-01-24T08:16:34.306Z,15
2017-01-24T08:17:43.363Z,15
2017-01-24T08:18:52.398Z,15
2017-01-24T08:20:02.205Z,15
2017-01-24T08:21:11.158Z,15
2017-01-24T08:22:20.418Z,15
2017-01-24T08:23:29.421Z,15
2017-01-24T08:24:38.405Z,15
2017-01-24T08:25:47.366Z,15
2017-01-24T08:26:56.317Z,15
2017-01-24T08:28:05.364Z,15
2017-01-24T08:29:14.354Z,20
2017-01-24T08:30:23.309Z,15
2017-01-24T08:31:32.260Z,15
2017-01-24T08:32:41.252Z,15
2017-01-24T08:33:50.208Z,15
2017-01-24T08:34:59.230Z,15
2017-01-24T08:36:08.183Z,15
2017-01-24T08:37:17.139Z,15
2017-01-24T08:38:26.112Z,15
2017-01-24T08:39:35.063Z,15
2017-01-24T08:40:44.109Z,15
2017-01-24T08:41:53.083Z,20
2017-01-24T08:43:02.038Z,20
2017-01-24T08:44:11.521Z,15
2017-01-24T08:45:20.990Z,15
2017-01-24T08:46:29.945Z,15
2017-01-24T08:47:39.079Z,15
2017-01-24T08:48:48.033Z,20
2017-01-24T08:49:56.987Z,15
2017-01-24T08:51:05.944Z,15
2017-01-24T08:52:14.932Z,15
2017-01-24T08:53:23.893Z,20
2017-01-24T08:54:32.839Z,25
2017-01-24T08:55:42.556Z,25
2017-01-24T08:56:51.512Z,20
2017-01-24T08:58:00.472Z,20
2017-01-24T08:59:09.429Z,20
2017-01-24T09:00:18.392Z,15
2017-01-24T09:01:27.345Z,15
2017-01-24T09:02:37.041Z,15
2017-01-24T09:03:59.925Z,20
2017-01-24T09:05:20.174Z,20
2017-01-24T09:06:34.006Z,20
2017-01-24T09:07:52.735Z,20
2017-01-24T09:09:03.002Z,20
2017-01-24T09:10:12.437Z,20
2017-01-24T09:11:22.514Z,20
2017-01-24T09:12:31.471Z,25
2017-01-24T09:13:40.427Z,20
2017-01-24T09:14:49.391Z,20
2017-01-24T09:15:58.349Z,25
2017-01-24T09:17:07.307Z,25
2017-01-24T09:18:16.263Z,25
2017-01-24T09:19:25.305Z,25
2017-01-24T09:20:34.259Z,30
2017-01-24T09:21:43.254Z,25
2017-01-24T09:22:52.200Z,25
2017-01-24T09:24:01.150Z,25
2017-01-24T09:25:10.103Z,25
2017-01-24T09:26:19.062Z,25
2017-01-24T09:27:28.025Z,25
2017-01-24T09:28:36.984Z,30
2017-01-24T09:29:45.940Z,30
2017-01-24T09:30:54.892Z,35
2017-01-24T09:32:03.846Z,30
2017-01-24T09:33:12.804Z,30
2017-01-24T09:34:21.756Z,30
2017-01-24T09:35:30.705Z,35
2017-01-24T09:36:39.654Z,40
2017-01-24T09:37:48.611Z,40
2017-01-24T09:38:57.933Z,40
2017-01-24T09:40:06.891Z,45
2017-01-24T09:41:15.846Z,40
2017-01-24T09:42:24.801Z,40
2017-01-24T09:43:33.752Z,40
2017-01-24T09:44:42.986Z,45
2017-01-24T09:45:52.630Z,45
2017-01-24T09:47:01.586Z,45
2017-01-24T09:48:10.778Z,50
2017-01-24T09:49:20.242Z,50
2017-01-24T09:50:29.198Z,45
2017-01-24T09:51:38.149Z,45
2017-01-24T09:52:47.589Z,45
2017-01-24T09:53:56.542Z,45
2017-01-24T09:55:05.884Z,40
2017-01-24T09:56:14.838Z,40
2017-01-24T09:57:24.232Z,40
2017-01-24T09:58:33.184Z,45
2017-01-24T09:59:42.137Z,40
2017-01-24T10:00:51.085Z,45
2017-01-24T10:02:00.034Z,45
2017-01-24T10:03:08.983Z,45
2017-01-24T10:04:17.939Z,45
2017-01-24T10:05:26.914Z,45
2017-01-24T10:06:36.017Z,45
2017-01-24T10:07:45.022Z,45
2017-01-24T10:08:54.064Z,40
2017-01-24T10:10:03.020Z,40
2017-01-24T10:11:11.981Z,40
2017-01-24T10:12:20.939Z,40
2017-01-24T10:13:29.893Z,35
2017-01-24T10:14:38.843Z,35
2017-01-24T10:15:47.796Z,35
2017-01-24T10:16:56.755Z,40
2017-01-24T10:18:05.712Z,40
2017-01-24T10:19:14.692Z,45
2017-01-24T10:20:23.653Z,45
2017-01-24T10:21:32.611Z,45
2017-01-24T10:22:41.566Z,40
2017-01-24T10:23:50.521Z,40
2017-01-24T10:24:59.681Z,40
2017-01-24T10:26:08.644Z,45
2017-01-24T10:27:17.940Z,45
2017-01-24T10:28:26.964Z,40
2017-01-24T10:29:36.057Z,35
2017-01-24T10:30:45.826Z,40
2017-01-24T10:31:54.857Z,40
2017-01-24T10:33:04.203Z,35
2017-01-24T10:34:13.160Z,35
2017-01-24T10:35:22.117Z,35
2017-01-24T10:36:31.358Z,35
2017-01-24T10:37:40.331Z,35
2017-01-24T10:38:49.667Z,40
2017-01-24T10:39:59.256Z,40
2017-01-24T10:41:08.900Z,35
2017-01-24T10:42:17.941Z,35
2017-01-24T10:43:27.374Z,40
2017-01-24T10:44:36.405Z,40
2017-01-24T10:45:45.448Z,40
2017-01-24T10:46:54.418Z,40
2017-01-24T10:48:03.387Z,45
2017-01-24T10:49:12.344Z,40
2017-01-24T10:50:21.300Z,40
2017-01-24T10:51:30.251Z,40
2017-01-24T10:52:39.293Z,40
2017-01-24T10:53:48.244Z,40
2017-01-24T10:54:57.194Z,40
2017-01-24T10:56:06.177Z,35
2017-01-24T10:57:15.130Z,35
2017-01-24T10:58:24.086Z,35
2017-01-24T10:59:33.069Z,35
2017-01-24T11:00:42.026Z,35
2017-01-24T11:01:50.977Z,40
2017-01-24T11:03:00.101Z,40
2017-01-24T11:04:09.118Z,35
2017-01-24T11:05:18.083Z,40
2017-01-24T11:06:27.038Z,40
2017-01-24T11:07:36.068Z,35
2017-01-24T11:08:45.023Z,35
2017-01-24T11:09:54.445Z,35
2017-01-24T11:11:03.398Z,35
2017-01-24T11:12:12.356Z,35
2017-01-24T11:13:21.317Z,35
2017-01-24T11:14:30.272Z,30
2017-01-24T11:15:39.315Z,30
2017-01-24T11:16:49.636Z,30
2017-01-24T11:17:58.602Z,30
2017-01-24T11:19:07.570Z,30
2017-01-24T11:20:16.527Z,30
2017-01-24T11:21:25.487Z,30
2017-01-24T11:22:34.552Z,35
2017-01-24T11:23:43.538Z,35
2017-01-24T11:24:52.499Z,40
2017-01-24T11:26:01.450Z,40
2017-01-24T11:27:10.403Z,35
2017-01-24T11:28:19.361Z,35
2017-01-24T11:29:28.316Z,30
2017-01-24T11:30:37.266Z,30
2017-01-24T11:31:46.220Z,35
2017-01-24T11:32:55.174Z,35
2017-01-24T11:34:04.216Z,35
2017-01-24T11:35:13.173Z,35
2017-01-24T11:36:22.130Z,30
2017-01-24T11:37:31.187Z,30
2017-01-24T11:38:40.139Z,30
2017-01-24T11:39:49.096Z,35
2017-01-24T11:40:58.054Z,35
2017-01-24T11:42:07.035Z,40
2017-01-24T11:43:15.994Z,35
2017-01-24T11:44:24.944Z,30
2017-01-24T11:45:33.901Z,30
2017-01-24T11:46:42.865Z,30
2017-01-24T11:47:51.824Z,30
2017-01-24T11:49:00.780Z,30
2017-01-24T11:50:09.735Z,30
2017-01-24T11:51:18.693Z,30
2017-01-24T11:52:27.649Z,30
2017-01-24T11:53:36.604Z,30
2017-01-24T11:54:45.562Z,35
2017-01-24T11:55:55.109Z,30
2017-01-24T11:57:04.325Z,30
2017-01-24T11:58:15.956Z,30
2017-01-24T11:59:25.681Z,30
2017-01-24T12:00:36.032Z,35
2017-01-24T12:01:45.121Z,25
2017-01-24T12:02:54.734Z,25
2017-01-24T12:04:04.788Z,25
2017-01-24T12:05:14.243Z,30
2017-01-24T12:06:23.913Z,25
2017-01-24T12:07:35.133Z,25
2017-01-24T12:08:45.445Z,25
2017-01-24T12:09:54.835Z,25
2017-01-24T12:11:04.470Z,25
2017-01-24T12:12:14.100Z,25
2017-01-24T12:13:23.208Z,25
2017-01-24T12:14:33.474Z,25
2017-01-24T12:15:43.163Z,25
2017-01-24T12:16:52.137Z,25
2017-01-24T12:18:02.844Z,25
2017-01-24T12:19:11.797Z,25
2017-01-24T12:20:20.755Z,25
2017-01-24T12:21:29.979Z,25
2017-01-24T12:22:39.002Z,25
2017-01-24T12:23:51.026Z,25
2017-01-24T12:25:00.351Z,25
2017-01-24T12:26:09.310Z,25
2017-01-24T12:27:18.265Z,25
2017-01-24T12:28:27.803Z,25
2017-01-24T12:29:37.774Z,25
2017-01-24T12:30:48.817Z,25
2017-01-24T12:32:01.072Z,25
2017-01-24T12:33:11.959Z,25
2017-01-24T12:34:22.638Z,25
2017-01-24T12:35:32.324Z,25
2017-01-24T12:36:42.015Z,25
2017-01-24T12:37:50.967Z,25
2017-01-24T12:38:59.926Z,30
2017-01-24T12:40:08.879Z,30
2017-01-24T12:41:17.827Z,30
2017-01-24T12:42:26.781Z,30
2017-01-24T12:43:35.732Z,30
2017-01-24T12:44:44.700Z,30
2017-01-24T12:45:53.769Z,30
2017-01-24T12:47:02.724Z,30
2017-01-24T12:48:11.682Z,30
2017-01-24T12:49:20.634Z,30
2017-01-24T12:50:29.590Z,25
2017-01-24T12:51:38.551Z,25
2017-01-24T12:52:47.508Z,25
2017-01-24T12:53:56.462Z,25
2017-01-24T12:55:05.417Z,25
2017-01-24T12:56:14.464Z,25
2017-01-24T12:57:23.416Z,25
2017-01-24T12:58:32.363Z,25
2017-01-24T12:59:41.310Z,25
2017-01-24T13:00:50.270Z,25
2017-01-24T13:01:59.313Z,25
2017-01-24T13:03:08.288Z,25
2017-01-24T13:04:17.246Z,25
2017-01-24T13:05:26.200Z,25
2017-01-24T13:06:35.152Z,25
2017-01-24T13:07:44.209Z,25
2017-01-24T13:08:54.039Z,25
2017-01-24T13:10:03.233Z,25
2017-01-24T13:11:12.595Z,25
2017-01-24T13:12:22.136Z,25
2017-01-24T13:13:31.466Z,25
2017-01-24T13:14:40.799Z,25
2017-01-24T13:15:50.146Z,20
2017-01-24T13:16:59.451Z,20
2017-01-24T13:18:08.631Z,20
2017-01-24T13:19:17.696Z,20
2017-01-24T13:20:27.070Z,20
2017-01-24T13:21:36.733Z,20
2017-01-24T13:22:51.317Z,20
2017-01-24T13:24:00.961Z,20
2017-01-24T13:25:10.574Z,20
2017-01-24T13:26:20.293Z,20
2017-01-24T13:27:30.602Z,20
2017-01-24T13:28:41.227Z,20
2017-01-24T13:29:50.194Z,20
2017-01-24T13:30:59.151Z,20
2017-01-24T13:32:08.104Z,15
2017-01-24T13:33:17.064Z,15
2017-01-24T13:34:26.016Z,15
2017-01-24T13:35:34.997Z,15
2017-01-24T13:36:46.262Z,15
2017-01-24T13:37:55.469Z,15
2017-01-24T13:39:04.428Z,15
2017-01-24T13:40:13.463Z,15
2017-01-24T13:41:22.421Z,15
2017-01-24T13:42:31.376Z,10
2017-01-24T13:43:40.332Z,15
2017-01-24T13:44:49.286Z,15
2017-01-24T13:45:58.241Z,15
2017-01-24T13:47:07.202Z,15
2017-01-24T13:48:20.041Z,15
2017-01-24T13:49:29.766Z,15
2017-01-24T13:50:38.721Z,10
2017-01-24T13:51:47.702Z,10
2017-01-24T13:52:56.759Z,10
2017-01-24T13:54:05.715Z,15
2017-01-24T13:55:14.665Z,10
2017-01-24T13:56:23.624Z,10
2017-01-24T13:57:32.666Z,10
2017-01-24T13:58:41.652Z,10
2017-01-24T13:59:50.603Z,10
2017-01-24T14:00:59.575Z,10
2017-01-24T14:02:08.528Z,10
2017-01-24T14:03:17.511Z,10
2017-01-24T14:04:26.463Z,10
2017-01-24T14:05:35.425Z,10
2017-01-24T14:06:44.531Z,10
2017-01-24T14:07:54.538Z,10
2017-01-24T14:09:04.330Z,10
2017-01-24T14:10:13.285Z,10
2017-01-24T14:11:23.973Z,10
2017-01-24T14:12:34.014Z,5
2017-01-24T14:13:43.983Z,5
2017-01-24T14:14:53.292Z,5
2017-01-24T14:16:02.488Z,5
2017-01-24T14:17:11.454Z,5
2017-01-24T14:18:22.164Z,5
2017-01-24T14:19:31.670Z,10
2017-01-24T14:20:41.179Z,10
2017-01-24T14:21:50.720Z,10
2017-01-24T14:23:01.223Z,10
2017-01-24T14:24:10.822Z,10
2017-01-24T14:25:19.774Z,5
2017-01-24T14:26:28.736Z,5
2017-01-24T14:27:37.994Z,5
2017-01-24T14:28:47.901Z,5
2017-01-24T14:29:57.420Z,5
2017-01-24T14:31:06.381Z,5
2017-01-24T14:32:15.339Z,5
2017-01-24T14:33:24.841Z,5
2017-01-24T14:34:34.644Z,5
2017-01-24T14:35:43.923Z,5
2017-01-24T14:36:53.874Z,5
2017-01-24T14:38:03.415Z,5
2017-01-24T14:39:15.476Z,5
2017-01-24T14:40:27.189Z,5
2017-01-24T14:41:37.022Z,5
2017-01-24T14:42:45.979Z,5
2017-01-24T14:43:54.937Z,5
2017-01-24T14:45:04.444Z,5
2017-01-24T14:46:17.374Z,5
2017-01-24T14:47:29.985Z,5
2017-01-24T14:48:42.308Z,5
2017-01-24T14:49:52.955Z,5
2017-01-24T14:51:05.287Z,5
2017-01-24T14:52:14.714Z,5
2017-01-24T14:53:24.545Z,0
2017-01-24T14:54:34.940Z,0
2017-01-24T14:55:44.518Z,0
2017-01-24T14:56:53.480Z,0
2017-01-24T14:58:02.432Z,0
2017-01-24T14:59:11.391Z,0
2017-01-24T15:00:20.363Z,0
2017-01-24T15:01:29.323Z,0
2017-01-24T15:02:38.291Z,0
2017-01-24T15:03:47.249Z,0
2017-01-24T15:04:56.202Z,0
2017-01-24T15:06:05.158Z,0
2017-01-24T15:07:14.119Z,0
2017-01-24T15:08:23.073Z,0
2017-01-24T15:09:32.030Z,0
2017-01-24T15:10:41.528Z,0
2017-01-24T15:11:51.793Z,0
2017-01-24T15:13:01.406Z,0
2017-01-24T15:14:11.196Z,0
2017-01-24T15:15:20.149Z,0
2017-01-24T15:16:29.105Z,0
2017-01-24T15:17:38.058Z,0
2017-01-24T15:18:47.021Z,0
2017-01-24T15:19:55.974Z,0
2017-01-24T15:21:06.651Z,0
2017-01-24T15:22:17.105Z,0
2017-01-24T15:23:27.239Z,0
2017-01-24T15:24:37.971Z,0
2017-01-24T15:25:47.986Z,0
2017-01-24T15:26:57.582Z,0
2017-01-24T15:28:08.318Z,0
2017-01-24T15:29:17.956Z,0
2017-01-24T15:30:27.997Z,0
2017-01-24T15:31:37.488Z,0
2017-01-24T15:32:46.849Z,0
2017-01-24T15:33:55.803Z,0
2017-01-24T15:35:05.347Z,0
2017-01-24T15:36:14.330Z,0
2017-01-24T15:37:24.866Z,0
2017-01-24T15:38:35.423Z,0
2017-01-24T15:39:44.376Z,0
2017-01-24T15:40:53.327Z,0
2017-01-24T15:42:02.278Z,0
2017-01-24T15:43:11.262Z,0
2017-01-24T15:44:20.214Z,0
2017-01-24T15:45:29.165Z,0
2017-01-24T15:46:38.119Z,0
2017-01-24T15:47:47.077Z,0
2017-01-24T15:48:56.036Z,0
2017-01-24T15:50:04.991Z,0
2017-01-24T15:51:13.951Z,0
2017-01-24T15:52:22.907Z,0
2017-01-24T15:53:31.863Z,0
2017-01-24T15:54:40.829Z,0
2017-01-24T15:55:49.783Z,0
2017-01-24T15:56:58.739Z,0
2017-01-24T15:58:07.690Z,0
2017-01-24T15:59:16.648Z,0
2017-01-24T16:00:25.603Z,0
2017-01-24T16:01:34.568Z,0
2017-01-24T16:02:43.522Z,0
2017-01-24T16:03:52.483Z,0
2017-01-24T16:05:01.528Z,0
2017-01-24T16:06:10.486Z,0
2017-01-24T16:07:19.443Z,0
2017-01-24T16:08:28.469Z,0
2017-01-24T16:09:38.046Z,0
2017-01-24T16:10:48.700Z,0
2017-01-24T16:11:58.559Z,0
2017-01-24T16:13:08.183Z,0
2017-01-24T16:14:17.321Z,0
2017-01-24T16:15:26.921Z,0
2017-01-24T16:16:37.079Z,0
2017-01-24T16:17:46.989Z,0
2017-01-24T16:18:56.801Z,0
2017-01-24T16:20:05.757Z,0
2017-01-24T16:21:14.711Z,0
2017-01-24T16:22:23.672Z,0
2017-01-24T16:23:32.629Z,0
2017-01-24T16:24:41.583Z,0
2017-01-24T16:25:50.535Z,0
2017-01-24T16:26:59.493Z,0
2017-01-24T16:28:08.448Z,0
2017-01-24T16:29:17.401Z,0
2017-01-24T16:30:26.359Z,0
2017-01-24T16:31:35.314Z,0
2017-01-24T16:32:44.271Z,0
2017-01-24T16:33:53.229Z,0
2017-01-24T16:35:02.183Z,0
2017-01-24T16:36:11.143Z,0
2017-01-24T16:37:20.108Z,0
2017-01-24T16:38:29.070Z,0
2017-01-24T16:39:41.102Z,0
2017-01-24T16:40:54.309Z,0
2017-01-24T16:42:15.792Z,0
2017-01-24T16:43:35.839Z,0
2017-01-24T16:44:55.875Z,0
2017-01-24T16:46:13.942Z,0
2017-01-24T16:47:31.292Z,0
2017-01-24T16:48:44.014Z,0
2017-01-24T16:49:59.853Z,0
2017-01-24T16:51:18.127Z,0
2017-01-24T16:52:37.650Z,0